Time;durP1;ratioP1;P1;durP2;ratioP2;P2;SDS_P1;SDS_P2;PMS_P1;PMS_P2;Temp;Humidity;BMP_temperature;BMP_pressure;BME280_temperature;BME280_humidity;BME280_pressure;Samples;Min_cycle;Max_cycle;Signal;HPM_P1;HPM_P2
2023/06/11 00:02:12;;;;;;;9.73;8.73;;;;;;;21.93;56.42;101389.84;4846077;29;20018;-59
2023/06/11 00:04:37;;;;;;;8.98;8.23;;;;;;;21.94;56.30;101386.28;4846250;29;20043;-59
2023/06/11 00:07:05;;;;;;;9.00;8.10;;;;;;;21.94;56.33;101381.88;4846690;29;20029;-59
2023/06/11 00:09:31;;;;;;;8.38;7.65;;;;;;;21.91;56.50;101387.19;4846591;29;20036;-59
2023/06/11 00:11:56;;;;;;;10.20;7.88;;;;;;;21.91;56.58;101386.34;4846271;29;20042;-59
2023/06/11 00:14:24;;;;;;;8.25;7.45;;;;;;;21.84;56.71;101385.53;4846582;29;20100;-58
2023/06/11 00:16:50;;;;;;;8.33;7.53;;;;;;;21.85;57.31;101374.03;4845910;29;20072;-59
2023/06/11 00:19:20;;;;;;;8.55;7.20;;;;;;;21.78;56.92;101383.84;4846286;29;20045;-59
2023/06/11 00:21:45;;;;;;;8.38;7.68;;;;;;;21.76;57.46;101376.84;4846222;29;20141;-59
2023/06/11 00:24:15;;;;;;;7.88;7.18;;;;;;;21.70;57.31;101372.50;4846247;29;20109;-59
2023/06/11 00:26:41;;;;;;;8.40;7.60;;;;;;;21.68;57.41;101374.28;4846305;29;20057;-58
2023/06/11 00:29:08;;;;;;;8.88;7.97;;;;;;;21.60;57.50;101370.88;4846591;29;20112;-53
2023/06/11 00:31:34;;;;;;;8.63;7.80;;;;;;;21.61;57.66;101373.50;4846572;29;20029;-52
2023/06/11 00:34:00;;;;;;;8.23;7.45;;;;;;;21.49;57.86;101373.63;4846367;29;20435;-53
2023/06/11 00:36:26;;;;;;;8.70;7.80;;;;;;;21.47;58.47;101363.03;4846107;29;20418;-52
2023/06/11 00:38:58;;;;;;;8.73;7.93;;;;;;;21.46;58.14;101371.03;4845100;29;20120;-52
2023/06/11 00:41:29;;;;;;;8.45;7.75;;;;;;;21.44;58.48;101373.69;4845133;29;20054;-52
2023/06/11 00:43:58;;;;;;;9.25;8.30;;;;;;;21.37;58.51;101370.22;4845659;29;20052;-52
2023/06/11 00:46:24;;;;;;;9.10;8.30;;;;;;;21.37;58.37;101372.88;4845809;29;20096;-52
2023/06/11 00:48:50;;;;;;;9.27;8.38;;;;;;;21.30;58.98;101371.19;4844187;29;20029;-52
2023/06/11 00:51:17;;;;;;;9.32;8.38;;;;;;;21.29;59.24;101364.16;4845080;29;20033;-53
2023/06/11 00:53:43;;;;;;;8.80;8.07;;;;;;;21.31;58.95;101364.16;4844978;29;20080;-52
2023/06/11 00:56:08;;;;;;;9.00;8.10;;;;;;;21.26;59.43;101369.50;4845004;29;20029;-52
2023/06/11 00:58:35;;;;;;;8.52;7.82;;;;;;;21.21;59.25;101376.63;4844734;29;20081;-52
2023/06/11 01:01:05;;;;;;;9.50;8.60;;;;;;;21.23;58.82;101372.19;4844962;29;20036;-51
2023/06/11 01:03:33;;;;;;;9.60;8.75;;;;;;;21.20;59.47;101374.88;4844733;29;20481;-52
2023/06/11 01:06:17;;;;;;;9.40;8.60;;;;;;;21.18;59.04;101374.03;4846196;29;20516;-52
2023/06/11 01:08:44;;;;;;;9.02;8.23;;;;;;;21.16;59.43;101376.69;4845573;29;20082;-52
2023/06/11 01:11:17;;;;;;;9.32;8.52;;;;;;;21.13;59.76;101375.84;4846160;29;20541;-51
2023/06/11 01:13:43;;;;;;;9.63;8.82;;;;;;;21.03;60.21;101380.38;4846328;29;20045;-52
2023/06/11 01:16:36;;;;;;;9.95;8.85;;;;;;;21.00;60.03;101381.28;4845841;29;20033;-52
2023/06/11 01:19:20;;;;;;;10.20;9.40;;;;;;;20.92;60.85;101379.63;4849186;29;20038;-51
2023/06/11 01:21:53;;;;;;;10.60;9.57;;;;;;;20.89;60.69;101377.00;4849875;29;20265;-51
2023/06/11 01:24:21;;;;;;;10.07;9.25;;;;;;;20.87;60.95;101374.38;4850141;29;20041;-51
2023/06/11 01:27:06;;;;;;;10.25;9.35;;;;;;;20.82;60.82;101381.47;4849492;29;20061;-53
2023/06/11 01:29:35;;;;;;;10.43;9.55;;;;;;;20.73;61.28;101379.81;4849883;29;20042;-52
2023/06/11 01:32:06;;;;;;;10.43;9.50;;;;;;;20.60;62.10;101386.97;4849704;29;20698;-51
2023/06/11 01:34:31;;;;;;;9.70;8.80;;;;;;;20.60;61.61;101380.78;4849750;29;20034;-52
2023/06/11 01:36:57;;;;;;;10.80;9.80;;;;;;;20.56;62.24;101389.66;4849227;29;21719;-51
2023/06/11 01:39:22;;;;;;;10.02;9.20;;;;;;;20.54;62.36;101386.13;4848197;29;20789;-52
2023/06/11 01:41:48;;;;;;;10.43;9.52;;;;;;;20.54;61.86;101381.72;4848685;29;20140;-52
2023/06/11 01:44:13;;;;;;;10.38;9.48;;;;;;;20.53;62.15;101382.59;4848913;29;20564;-51
2023/06/11 01:46:39;;;;;;;10.90;10.00;;;;;;;20.50;62.23;101383.50;4848556;29;20041;-51
2023/06/11 01:49:04;;;;;;;10.75;9.77;;;;;;;20.44;62.64;101382.72;4849094;29;20057;-52
2023/06/11 01:51:31;;;;;;;10.70;9.80;;;;;;;20.36;63.13;101384.53;4848715;29;20030;-53
2023/06/11 01:53:56;;;;;;;10.98;10.07;;;;;;;20.35;62.92;101385.41;4848734;29;20397;-52
2023/06/11 01:56:21;;;;;;;11.15;10.25;;;;;;;20.30;63.30;101383.69;4848883;29;20029;-51
2023/06/11 01:58:47;;;;;;;10.27;9.45;;;;;;;20.25;63.40;101390.78;4848882;29;20049;-51
2023/06/11 02:01:13;;;;;;;11.38;10.48;;;;;;;20.19;63.97;101384.66;4847460;29;20037;-51
2023/06/11 02:03:42;;;;;;;11.23;10.23;;;;;;;20.14;64.46;101390.00;4848211;29;20105;-51
2023/06/11 02:06:08;;;;;;;11.32;10.32;;;;;;;20.16;64.04;101390.88;4869083;29;20520;-52
2023/06/11 02:08:34;;;;;;;10.95;9.95;;;;;;;20.13;64.39;101386.47;4848911;29;20050;-51
2023/06/11 02:11:00;;;;;;;10.85;9.95;;;;;;;20.14;64.42;101382.06;4848397;29;20072;-52
2023/06/11 02:13:30;;;;;;;11.23;10.32;;;;;;;20.09;64.21;101390.03;4848655;29;20042;-53
2023/06/11 02:15:58;;;;;;;11.30;10.40;;;;;;;20.00;64.73;101389.22;4848784;29;20036;-51
2023/06/11 02:18:24;;;;;;;11.45;10.50;;;;;;;20.00;64.98;101381.28;4863891;23;20090;-95
2023/06/11 02:20:53;;;;;;;11.98;10.88;;;;;;;19.95;64.96;101381.31;4881922;29;20021;-96
2023/06/11 02:23:21;;;;;;;11.65;10.70;;;;;;;19.91;65.65;101385.72;4864992;29;20053;-96
2023/06/11 02:25:51;;;;;;;11.38;10.45;;;;;;;19.83;66.01;101382.28;4859749;29;20029;-96
2023/06/11 02:28:17;;;;;;;11.35;10.35;;;;;;;19.79;65.77;101380.53;4862868;29;20033;-96
2023/06/11 02:30:45;;;;;;;12.23;11.23;;;;;;;19.69;65.92;101378.81;4851035;29;20022;-96
2023/06/11 02:33:18;;;;;;;11.88;10.18;;;;;;;19.69;66.12;101374.38;4865825;29;20116;-96
2023/06/11 02:35:43;;;;;;;11.15;10.15;;;;;;;19.72;66.33;101378.78;4862991;29;20037;-96
2023/06/11 02:38:12;;;;;;;11.30;10.40;;;;;;;19.71;66.18;101375.25;4878139;29;20025;-96
2023/06/11 02:40:37;;;;;;;11.30;10.40;;;;;;;19.68;66.44;101377.03;4879711;29;20018;-96
2023/06/11 02:43:02;;;;;;;11.60;10.57;;;;;;;19.68;66.14;101377.91;4886618;29;20274;-96
2023/06/11 02:45:28;;;;;;;11.85;10.75;;;;;;;19.64;66.73;101376.19;4888273;29;20018;-96
2023/06/11 02:47:53;;;;;;;11.75;10.75;;;;;;;19.62;66.49;101372.66;4890247;29;20021;-96
2023/06/11 02:50:19;;;;;;;11.60;10.55;;;;;;;19.58;66.97;101379.75;4886005;29;20018;-96
2023/06/11 02:52:47;;;;;;;11.38;10.38;;;;;;;19.55;67.14;101377.13;4890275;29;20038;-95
2023/06/11 02:55:12;;;;;;;11.65;10.55;;;;;;;19.44;67.74;101385.09;4881300;29;20117;-96
2023/06/11 02:57:38;;;;;;;11.25;10.32;;;;;;;19.40;67.57;101382.47;4882023;29;20037;-96
2023/06/11 03:00:04;;;;;;;11.85;10.85;;;;;;;19.39;67.57;101386.88;4882022;29;20025;-96
2023/06/11 03:02:30;;;;;;;12.65;11.55;;;;;;;19.33;67.75;101386.00;4881380;29;20018;-96
2023/06/11 03:04:57;;;;;;;11.60;10.60;;;;;;;19.28;68.06;101381.63;4881587;29;20050;-96
2023/06/11 03:07:23;;;;;;;12.15;11.15;;;;;;;19.28;68.14;101389.56;4882101;29;20081;-96
2023/06/11 03:09:54;;;;;;;11.77;10.85;;;;;;;19.31;68.12;101387.78;4881401;29;20044;-96
2023/06/11 03:12:25;;;;;;;12.05;10.77;;;;;;;19.24;68.75;101387.78;4865462;29;20049;-96
2023/06/11 03:14:50;;;;;;;12.07;11.07;;;;;;;19.22;68.18;101384.28;4875105;29;21145;-96
2023/06/11 03:17:19;;;;;;;12.25;11.18;;;;;;;19.19;68.46;101383.41;4860700;29;20121;-96
2023/06/11 03:19:47;;;;;;;12.20;11.20;;;;;;;19.17;68.54;101391.34;4862098;29;20136;-96
2023/06/11 03:22:12;;;;;;;12.13;11.05;;;;;;;19.18;68.68;101387.81;4865474;29;20492;-96
2023/06/11 03:24:46;;;;;;;13.27;11.88;;;;;;;19.14;68.47;101390.50;4866241;29;20045;-96
2023/06/11 03:27:20;;;;;;;12.75;11.75;;;;;;;19.13;68.89;101386.09;4862347;29;20021;-96
2023/06/11 03:29:46;;;;;;;13.52;12.32;;;;;;;19.13;68.41;101392.22;4864662;29;20033;-96
2023/06/11 03:32:14;;;;;;;11.88;10.88;;;;;;;19.08;68.78;101386.97;4862012;29;20395;-96
2023/06/11 03:34:39;;;;;;;12.70;11.60;;;;;;;19.06;69.17;101387.84;4863681;29;20024;-96
2023/06/11 03:37:05;;;;;;;12.70;11.60;;;;;;;19.05;69.14;101392.25;4871608;29;20025;-96
2023/06/11 03:39:33;;;;;;;13.05;11.85;;;;;;;19.03;69.61;101387.88;4861601;29;20033;-96
2023/06/11 03:41:59;;;;;;;12.87;11.80;;;;;;;19.01;69.51;101390.50;4860945;29;20559;-96
2023/06/11 03:44:39;;;;;;;12.93;11.73;;;;;;;19.01;69.42;101395.78;4862235;29;20044;-96
2023/06/11 03:47:04;;;;;;;13.23;12.10;;;;;;;18.90;70.14;101393.19;4859903;29;20510;-96
2023/06/11 03:49:32;;;;;;;13.07;11.90;;;;;;;18.91;69.89;101399.34;4856009;29;20026;-96
2023/06/11 03:51:58;;;;;;;13.50;12.35;;;;;;;18.90;70.36;101398.47;4855111;29;20027;-96
2023/06/11 03:54:34;;;;;;;13.93;12.57;;;;;;;18.88;70.48;101397.56;4856480;29;20507;-95
2023/06/11 03:57:02;;;;;;;13.10;11.80;;;;;;;18.88;70.31;101400.22;4856197;29;20396;-96
2023/06/11 03:59:28;;;;;;;13.60;12.40;;;;;;;18.86;70.65;101398.47;4859459;29;20034;-96
2023/06/11 04:01:53;;;;;;;13.75;12.65;;;;;;;18.84;70.72;101401.09;4863927;29;20037;-95
2023/06/11 04:04:21;;;;;;;13.35;12.27;;;;;;;18.84;70.49;101395.81;4860373;29;20496;-96
2023/06/11 04:06:50;;;;;;;13.10;11.80;;;;;;;18.83;70.99;101401.06;4876634;23;20179;-52
2023/06/11 04:09:15;;;;;;;12.98;11.75;;;;;;;18.83;70.83;101401.97;4851484;29;20041;-52
2023/06/11 04:14:10;;;;;;;12.82;11.73;;;;;;;18.75;71.28;101399.31;4974395;23;20066;-58
2023/06/11 04:16:35;;;;;;;13.85;12.65;;;;;;;18.74;71.74;101402.88;4858805;29;20029;-53
2023/06/11 04:19:01;;;;;;;13.57;12.27;;;;;;;18.76;71.55;101405.50;4861294;29;20060;-50
2023/06/11 04:21:26;;;;;;;14.07;12.77;;;;;;;18.75;71.63;101409.88;4861197;29;20033;-51
2023/06/11 04:23:51;;;;;;;13.70;12.40;;;;;;;18.75;72.28;101411.66;4860005;29;20048;-52
2023/06/11 04:26:19;;;;;;;13.15;11.95;;;;;;;18.74;72.39;101416.06;4857941;29;20504;-50
2023/06/11 04:28:45;;;;;;;13.40;12.10;;;;;;;18.72;72.76;101414.31;4860457;29;20152;-51
2023/06/11 04:31:14;;;;;;;13.73;12.52;;;;;;;18.71;72.75;101410.78;4859196;29;20041;-51
2023/06/11 04:33:42;;;;;;;;;;;;;;;18.78;69.54;101409.00;4862100;29;20036;-52
2023/06/11 04:36:08;;;;;;;14.00;12.60;;;;;;;18.69;72.53;101409.91;4859077;29;20757;-51
2023/06/11 04:38:36;;;;;;;13.77;12.40;;;;;;;18.68;72.87;101407.25;4859676;29;20032;-53
2023/06/11 04:41:05;;;;;;;14.38;13.18;;;;;;;18.67;73.33;101409.03;4856390;29;20488;-51
2023/06/11 04:43:33;;;;;;;;;;;;;;;18.72;70.50;101409.91;4858703;29;20084;-51
2023/06/11 04:45:59;;;;;;;14.15;12.85;;;;;;;18.70;74.07;101408.16;4861431;29;19920;-51
2023/06/11 04:48:27;;;;;;;14.27;12.85;;;;;;;18.68;74.01;101415.19;4862080;29;20047;-52
2023/06/11 04:50:54;;;;;;;14.70;13.40;;;;;;;18.67;74.44;101408.13;4861070;29;20045;-50
2023/06/11 04:53:24;;;;;;;14.95;13.65;;;;;;;18.71;74.93;101407.25;4862069;29;20041;-52
2023/06/11 04:55:51;;;;;;;15.10;13.70;;;;;;;18.74;74.91;101412.53;4861372;29;20081;-51
2023/06/11 04:58:21;;;;;;;14.45;13.23;;;;;;;18.73;73.63;101410.78;4861696;29;20461;-52
2023/06/11 05:00:51;;;;;;;15.00;13.73;;;;;;;18.74;75.55;101417.81;4861050;29;20033;-52
2023/06/11 05:03:17;;;;;;;14.88;13.68;;;;;;;18.74;75.22;101417.81;4861339;29;20036;-51
2023/06/11 05:05:50;;;;;;;15.23;14.02;;;;;;;18.72;75.54;101419.59;4859142;29;20411;-52
2023/06/11 05:08:24;;;;;;;15.65;14.35;;;;;;;18.72;75.92;101416.94;4862144;29;20037;-52
2023/06/11 05:10:53;;;;;;;15.90;14.60;;;;;;;18.71;76.82;101416.06;4862052;29;20548;-51
2023/06/11 05:13:24;;;;;;;15.75;14.30;;;;;;;18.71;77.09;101417.81;4860602;29;20044;-51
2023/06/11 05:15:50;;;;;;;15.15;13.82;;;;;;;18.82;75.55;101416.06;4842172;29;20033;-52
2023/06/11 05:18:15;;;;;;;15.55;14.25;;;;;;;18.88;76.41;101418.69;4844078;29;20042;-51
2023/06/11 05:20:40;;;;;;;15.10;13.90;;;;;;;18.95;75.97;101427.50;4844345;29;20037;-51
2023/06/11 05:23:06;;;;;;;16.25;14.73;;;;;;;19.03;75.20;101424.84;4843177;29;20084;-52
2023/06/11 05:25:31;;;;;;;15.75;14.35;;;;;;;19.05;75.57;101423.09;4844273;29;20497;-51
2023/06/11 05:28:01;;;;;;;14.75;13.55;;;;;;;19.11;75.45;101423.94;4844427;29;20037;-52
2023/06/11 05:30:29;;;;;;;14.43;13.13;;;;;;;19.14;75.21;101428.34;4845573;29;20029;-52
2023/06/11 05:32:56;;;;;;;15.85;14.40;;;;;;;19.17;75.84;101423.03;4845168;29;20034;-51
2023/06/11 05:35:25;;;;;;;15.80;14.30;;;;;;;19.23;75.61;101417.78;4845185;29;20098;-52
2023/06/11 05:37:51;;;;;;;15.95;14.38;;;;;;;19.32;75.39;101421.25;4844120;29;20034;-51
2023/06/11 05:40:19;;;;;;;14.48;13.27;;;;;;;19.38;74.13;101415.94;4843996;29;20446;-51
2023/06/11 05:42:44;;;;;;;10.77;9.87;;;;;;;19.47;69.91;101426.47;4845342;29;20803;-51
2023/06/11 05:45:10;;;;;;;15.10;13.73;;;;;;;19.58;73.38;101418.50;4843210;29;20046;-53
2023/06/11 05:47:35;;;;;;;12.93;11.82;;;;;;;19.68;71.08;101424.63;4844223;29;20029;-52
2023/06/11 05:50:01;;;;;;;12.77;11.68;;;;;;;19.75;70.44;101413.13;4844166;29;20068;-52
2023/06/11 05:52:26;;;;;;;14.25;12.95;;;;;;;19.85;72.29;101422.81;4843672;29;20057;-52
2023/06/11 05:54:55;;;;;;;13.52;12.27;;;;;;;19.93;73.27;101425.41;4844269;29;20450;-52
2023/06/11 05:57:24;;;;;;;14.35;13.15;;;;;;;20.00;71.52;101426.25;4843672;29;20065;-53
2023/06/11 05:59:53;;;;;;;14.20;13.00;;;;;;;20.07;72.08;101420.03;4844878;29;20033;-53
2023/06/11 06:02:19;;;;;;;13.25;12.15;;;;;;;20.17;71.62;101424.34;4846355;29;20034;-52
2023/06/11 06:04:47;;;;;;;11.82;10.73;;;;;;;20.24;69.81;101420.78;4847554;29;20378;-52
2023/06/11 06:07:13;;;;;;;13.13;12.02;;;;;;;20.38;70.64;101425.09;4848735;29;20037;-52
2023/06/11 06:09:39;;;;;;;12.52;11.43;;;;;;;20.46;71.67;101431.22;4848214;29;20036;-52
2023/06/11 06:12:07;;;;;;;11.85;10.73;;;;;;;20.57;69.48;101434.66;4848444;29;20494;-53
2023/06/11 06:14:37;;;;;;;11.30;10.30;;;;;;;20.69;70.56;101435.47;4848121;29;20057;-53
2023/06/11 06:17:08;;;;;;;10.48;9.57;;;;;;;20.81;68.63;101428.28;4847183;29;20108;-53
2023/06/11 06:19:33;;;;;;;11.18;10.27;;;;;;;20.91;69.64;101437.00;4847723;29;20037;-52
2023/06/11 06:21:59;;;;;;;9.95;9.05;;;;;;;21.04;68.53;101434.25;4847139;29;20029;-53
2023/06/11 06:24:27;;;;;;;9.80;8.90;;;;;;;21.17;67.57;101436.75;4846134;29;20065;-53
2023/06/11 06:26:56;;;;;;;8.80;8.00;;;;;;;21.31;66.22;101435.72;4848393;29;20052;-53
2023/06/11 06:29:28;;;;;;;8.60;7.90;;;;;;;21.46;66.41;101435.50;4847154;29;20029;-53
2023/06/11 06:31:54;;;;;;;8.48;7.68;;;;;;;21.60;66.50;101438.03;4845560;29;20029;-53
2023/06/11 06:34:19;;;;;;;9.02;8.23;;;;;;;21.73;66.31;101441.41;4847286;29;20026;-52
2023/06/11 06:36:45;;;;;;;8.75;7.95;;;;;;;21.83;63.93;101443.03;4846446;29;20112;-53
2023/06/11 06:39:11;;;;;;;8.68;7.97;;;;;;;21.96;62.65;101435.78;4846213;29;20041;-54
2023/06/11 06:41:39;;;;;;;8.63;7.78;;;;;;;22.11;60.84;101437.34;4846055;29;20462;-53
2023/06/11 06:44:05;;;;;;;8.25;7.55;;;;;;;22.20;64.60;101436.31;4846841;29;20520;-53
2023/06/11 06:46:30;;;;;;;8.57;7.80;;;;;;;22.24;64.32;101438.03;4847489;29;20033;-54
2023/06/11 06:48:55;;;;;;;8.68;7.88;;;;;;;22.35;64.46;101437.91;4846857;29;20067;-53
2023/06/11 06:51:28;;;;;;;8.45;7.68;;;;;;;22.51;63.53;101446.50;4897249;23;20064;-96
2023/06/11 06:53:53;;;;;;;8.30;7.60;;;;;;;22.57;62.73;101441.94;4871783;29;20021;-96
2023/06/11 06:56:24;;;;;;;8.52;7.30;;;;;;;22.69;63.14;101438.19;4873082;29;20021;-96
2023/06/11 06:59:06;;;;;;;;;;;;;;;;;;;;;
2023/06/11 07:01:31;;;;;;;8.15;7.45;;;;;;;22.88;61.02;101436.13;4879634;29;20479;-96
2023/06/11 07:04:00;;;;;;;7.93;7.13;;;;;;;22.95;61.71;101434.19;4873304;29;20021;-96
2023/06/11 07:06:25;;;;;;;7.63;6.93;;;;;;;23.05;61.82;101432.25;4875106;29;20040;-96
2023/06/11 07:08:51;;;;;;;8.30;7.60;;;;;;;23.13;59.45;101438.34;4860997;23;20058;-52
2023/06/11 07:11:17;;;;;;;7.72;7.03;;;;;;;23.21;58.82;101438.19;4846974;29;20034;-52
2023/06/11 07:13:42;;;;;;;7.95;7.13;;;;;;;23.36;60.15;101434.34;4845034;29;20029;-52
2023/06/11 07:16:08;;;;;;;7.88;7.20;;;;;;;23.46;59.99;101440.34;4845487;29;20045;-52
2023/06/11 07:18:33;;;;;;;7.95;7.25;;;;;;;23.58;61.07;101440.09;4843745;29;20513;-53
2023/06/11 07:20:59;;;;;;;8.10;7.40;;;;;;;23.71;60.10;101438.94;4847228;29;20073;-52
2023/06/11 07:23:24;;;;;;;7.78;7.03;;;;;;;23.86;60.63;101437.72;4845181;29;20025;-53
2023/06/11 07:25:50;;;;;;;7.45;6.85;;;;;;;23.88;58.24;101443.91;4845960;29;20084;-52
2023/06/11 07:28:16;;;;;;;8.25;7.55;;;;;;;23.89;59.44;101431.47;4845723;29;20026;-51
2023/06/11 07:30:41;;;;;;;7.50;6.80;;;;;;;24.15;60.01;101438.84;4844822;29;20747;-52
2023/06/11 07:33:07;;;;;;;8.15;7.40;;;;;;;24.19;59.93;101431.66;4845469;29;20109;-53
2023/06/11 07:35:32;;;;;;;7.47;6.78;;;;;;;24.34;59.03;101441.09;4846748;29;20062;-52
2023/06/11 07:37:58;;;;;;;9.02;7.43;;;;;;;24.47;59.25;101443.38;4847126;29;20490;-52
2023/06/11 07:40:23;;;;;;;7.28;6.65;;;;;;;24.56;58.50;101450.28;4846523;29;20486;-53
2023/06/11 07:42:49;;;;;;;7.55;6.90;;;;;;;24.67;55.04;101442.06;4867191;29;20052;-53
2023/06/11 07:45:14;;;;;;;7.85;7.15;;;;;;;24.75;56.06;101445.41;4846048;29;20898;-53
2023/06/11 07:47:41;;;;;;;7.63;7.03;;;;;;;24.88;56.10;101448.59;4846700;29;20050;-52
2023/06/11 07:50:07;;;;;;;8.07;7.38;;;;;;;24.96;54.41;101438.59;4846007;29;20104;-52
2023/06/11 07:52:33;;;;;;;7.75;7.07;;;;;;;25.21;58.14;101445.06;4850328;29;20104;-52
2023/06/11 07:54:58;;;;;;;7.40;6.80;;;;;;;25.31;56.82;101443.91;4852414;29;20112;-53
2023/06/11 07:57:23;;;;;;;7.35;6.72;;;;;;;25.41;55.58;101445.41;4850933;29;20048;-53
2023/06/11 07:59:49;;;;;;;6.20;5.68;;;;;;;25.55;56.17;101436.09;4854155;29;20029;-53
2023/06/11 08:02:14;;;;;;;7.40;6.70;;;;;;;25.63;55.61;101439.44;4849752;29;20116;-53
2023/06/11 08:04:40;;;;;;;7.82;6.95;;;;;;;25.72;56.04;101440.94;4852224;29;20108;-52
2023/06/11 08:07:06;;;;;;;7.10;6.50;;;;;;;25.89;53.59;101440.44;4852329;29;20067;-53
2023/06/11 08:09:35;;;;;;;6.97;6.38;;;;;;;25.96;54.29;101436.66;4852106;29;21738;-53
2023/06/11 08:12:00;;;;;;;7.20;6.50;;;;;;;26.07;54.27;101436.34;4850190;29;20041;-54
2023/06/11 08:14:26;;;;;;;7.13;6.53;;;;;;;26.27;56.06;101438.38;4854263;29;20033;-53
2023/06/11 08:16:57;;;;;;;7.10;6.50;;;;;;;26.33;50.60;101433.72;4913250;23;20049;-96
2023/06/11 08:19:22;;;;;;;6.80;6.20;;;;;;;26.33;52.11;101431.03;4873670;23;20309;-58
2023/06/11 08:21:48;;;;;;;7.70;7.00;;;;;;;26.34;50.43;101432.75;4858413;29;20025;-58
2023/06/11 08:24:13;;;;;;;7.97;7.28;;;;;;;26.35;50.37;101433.66;4886448;23;20066;-94
2023/06/11 08:26:41;;;;;;;6.90;6.30;;;;;;;26.43;50.40;101428.06;4875674;29;20074;-95
2023/06/11 08:29:13;;;;;;;7.40;6.70;;;;;;;26.50;51.70;101427.78;4878103;29;20045;-95
2023/06/11 08:31:38;;;;;;;7.13;6.45;;;;;;;26.61;50.88;101429.25;4878148;29;20021;-94
2023/06/11 08:34:04;;;;;;;8.55;6.68;;;;;;;26.75;51.26;101428.78;4883758;29;20038;-95
2023/06/11 08:36:30;;;;;;;8.23;6.95;;;;;;;26.92;50.41;101422.84;4880612;29;20026;-94
2023/06/11 08:38:55;;;;;;;7.10;6.50;;;;;;;27.06;50.68;101436.59;4883447;29;20042;-95
2023/06/11 08:41:20;;;;;;;7.03;6.43;;;;;;;27.09;49.17;101433.81;4882290;29;20029;-94
2023/06/11 08:43:46;;;;;;;7.00;6.38;;;;;;;27.24;50.16;101422.56;4876422;29;20085;-95
2023/06/11 08:46:15;;;;;;;7.35;6.65;;;;;;;27.34;49.76;101422.22;4878267;29;20053;-95
2023/06/11 08:49:13;;;;;;;7.07;6.47;;;;;;;27.48;48.62;101417.22;4873561;29;20018;-95
2023/06/11 08:51:38;;;;;;;7.65;6.85;;;;;;;27.54;47.18;101416.13;4895027;29;20029;-95
2023/06/11 08:54:10;;;;;;;6.78;6.18;;;;;;;27.58;48.56;101423.97;4879735;29;20068;-95
2023/06/11 08:56:38;;;;;;;7.20;6.60;;;;;;;27.54;46.84;101414.31;4879150;29;20057;-95
2023/06/11 08:59:06;;;;;;;6.78;6.18;;;;;;;27.71;47.74;101407.44;4884808;29;20086;-95
2023/06/11 09:01:31;;;;;;;7.18;6.47;;;;;;;28.00;47.96;101408.13;4873985;29;20053;-95
2023/06/11 09:03:57;;;;;;;6.97;6.28;;;;;;;28.12;47.89;101412.97;4879854;29;20025;-96
2023/06/11 09:06:23;;;;;;;8.15;6.03;;;;;;;28.15;45.12;101407.47;4880081;29;20041;-96
2023/06/11 09:09:00;;;;;;;6.65;6.15;;;;;;;28.09;44.98;101410.41;4879967;29;20053;-96
2023/06/11 09:11:36;;;;;;;6.82;6.22;;;;;;;28.16;44.54;101411.91;4879550;29;20022;-96
2023/06/11 09:14:02;;;;;;;6.72;6.13;;;;;;;28.02;45.10;101416.94;4872463;29;20030;-94
2023/06/11 09:16:28;;;;;;;6.80;6.20;;;;;;;28.05;46.09;101416.81;4886207;23;20030;-53
2023/06/11 09:18:56;;;;;;;6.90;6.30;;;;;;;28.29;46.09;101409.59;4852558;29;20038;-53
2023/06/11 09:21:27;;;;;;;6.50;6.00;;;;;;;28.21;43.67;101420.59;4853608;29;20214;-53
2023/06/11 09:23:53;;;;;;;7.20;6.60;;;;;;;28.14;43.82;101407.53;4853431;29;20529;-53
2023/06/11 09:26:18;;;;;;;6.68;6.07;;;;;;;28.13;44.15;101403.09;4853748;29;20060;-53
2023/06/11 09:28:44;;;;;;;6.20;5.70;;;;;;;28.36;44.30;101410.19;4852863;29;20056;-53
2023/06/11 09:31:10;;;;;;;6.53;5.63;;;;;;;28.46;43.92;101403.53;4852968;29;20021;-54
2023/06/11 09:33:36;;;;;;;8.60;6.00;;;;;;;28.72;45.99;101406.91;4852638;29;20520;-53
2023/06/11 09:36:02;;;;;;;6.18;5.60;;;;;;;28.87;43.62;101406.22;4853867;29;20030;-54
2023/06/11 09:38:27;;;;;;;6.43;5.90;;;;;;;28.79;41.81;101409.25;4855569;29;20043;-53
2023/06/11 09:40:57;;;;;;;7.18;6.40;;;;;;;28.77;41.94;101404.91;4857613;29;20036;-53
2023/06/11 09:43:23;;;;;;;6.72;6.22;;;;;;;29.02;43.00;101404.66;4857367;29;20044;-53
2023/06/11 09:45:52;;;;;;;6.57;5.97;;;;;;;29.07;41.07;101409.81;4857509;29;20025;-53
2023/06/11 09:48:20;;;;;;;6.55;5.95;;;;;;;29.12;41.48;101410.50;4857392;29;20047;-53
2023/06/11 09:50:47;;;;;;;6.38;5.78;;;;;;;29.12;40.02;101405.13;4856897;29;20695;-53
2023/06/11 09:53:14;;;;;;;6.20;5.65;;;;;;;29.12;40.81;101415.84;4857028;29;20041;-53
2023/06/11 09:55:40;;;;;;;6.32;5.55;;;;;;;29.45;42.20;101400.03;4856813;29;20576;-54
2023/06/11 09:58:06;;;;;;;6.65;5.18;;;;;;;29.46;39.81;101407.16;4857015;29;20033;-53
2023/06/11 10:00:34;;;;;;;6.65;5.25;;;;;;;29.45;37.48;101412.59;4857168;29;20035;-53
2023/06/11 10:02:59;;;;;;;5.78;5.18;;;;;;;29.60;39.73;101411.84;4856823;29;20037;-53
2023/06/11 10:05:25;;;;;;;6.32;5.22;;;;;;;29.51;37.61;101406.94;4855614;29;20070;-54
2023/06/11 10:08:13;;;;;;;5.75;5.15;;;;;;;29.50;38.72;101410.56;4857169;29;20026;-54
2023/06/11 10:10:45;;;;;;;5.82;5.32;;;;;;;29.49;38.68;101401.63;4856563;29;20055;-53
2023/06/11 10:13:11;;;;;;;5.85;5.32;;;;;;;29.56;37.89;101409.41;4870664;29;20108;-53
2023/06/11 10:15:37;;;;;;;5.63;5.13;;;;;;;29.69;38.49;101415.06;4856615;29;20022;-54
2023/06/11 10:18:12;;;;;;;6.13;5.47;;;;;;;29.88;39.07;101402.53;4856277;29;20082;-53
2023/06/11 10:20:51;;;;;;;6.00;5.50;;;;;;;30.10;39.35;101405.00;4856583;29;20030;-53
2023/06/11 10:23:16;;;;;;;;;;;;;;;30.22;39.05;101397.28;4856504;29;20029;-53
2023/06/11 10:25:52;;;;;;;5.97;5.38;;;;;;;30.16;38.46;101403.84;4856517;29;20633;-54
2023/06/11 10:28:17;;;;;;;7.65;5.20;;;;;;;30.49;39.51;101400.44;4856639;29;20446;-54
2023/06/11 10:30:53;;;;;;;6.03;5.53;;;;;;;30.70;39.76;101401.13;4856789;29;20029;-53
2023/06/11 10:33:21;;;;;;;8.50;5.45;;;;;;;30.80;38.74;101402.38;4856445;29;20042;-54
2023/06/11 10:35:46;;;;;;;6.72;6.05;;;;;;;30.68;38.33;101403.88;4856289;29;20111;-54
2023/06/11 10:38:13;;;;;;;6.15;5.65;;;;;;;30.71;36.95;101402.00;4856487;29;20029;-53
2023/06/11 10:40:39;;;;;;;5.82;5.25;;;;;;;30.95;36.38;101400.69;4856402;29;20037;-53
2023/06/11 10:43:20;;;;;;;6.00;5.43;;;;;;;30.71;37.68;101402.00;4856373;29;20124;-54
2023/06/11 10:45:46;;;;;;;5.80;5.20;;;;;;;30.74;37.92;101407.22;4856189;29;20120;-54
2023/06/11 10:48:11;;;;;;;5.63;5.05;;;;;;;30.84;38.66;101395.88;4856114;29;20053;-53
2023/06/11 10:50:37;;;;;;;5.50;5.00;;;;;;;31.11;36.40;101403.47;4855271;29;20060;-53
2023/06/11 10:53:10;;;;;;;5.85;5.25;;;;;;;30.99;35.97;101401.38;4855863;29;20515;-54
2023/06/11 10:55:40;;;;;;;5.68;5.18;;;;;;;30.91;36.24;101400.91;4855940;29;20029;-54
2023/06/11 10:58:06;;;;;;;6.10;4.72;;;;;;;30.94;37.23;101406.16;4855768;29;20037;-54
2023/06/11 11:00:36;;;;;;;7.57;5.15;;;;;;;30.99;38.17;101401.38;4856165;29;20564;-53
2023/06/11 11:03:03;;;;;;;5.70;5.20;;;;;;;31.23;37.05;101396.53;4855740;29;20033;-54
2023/06/11 11:05:28;;;;;;;5.85;5.00;;;;;;;31.05;36.26;101395.69;4855979;29;20112;-54
2023/06/11 11:07:55;;;;;;;5.28;4.75;;;;;;;31.13;37.15;101400.69;4856016;29;20966;-54
2023/06/11 11:10:28;;;;;;;5.13;4.63;;;;;;;31.24;37.57;101392.00;4856108;29;20041;-53
2023/06/11 11:12:54;;;;;;;8.18;4.88;;;;;;;31.26;34.34;101400.91;4855895;29;20026;-53
2023/06/11 11:15:45;;;;;;;5.70;5.00;;;;;;;31.36;34.61;101392.22;4935826;23;20032;31
2023/06/11 11:18:11;;;;;;;5.10;4.63;;;;;;;31.23;34.43;101388.47;5000350;23;20759;-59
2023/06/11 11:20:36;;;;;;;5.45;4.32;;;;;;;31.52;36.53;101392.22;4846467;29;20753;-59
2023/06/11 11:23:02;;;;;;;5.32;3.63;;;;;;;31.52;32.20;101391.38;4847993;29;20033;-60
2023/06/11 11:25:29;;;;;;;5.40;4.40;;;;;;;31.46;32.67;101383.59;4845153;29;20034;-59
2023/06/11 11:27:55;;;;;;;4.65;4.18;;;;;;;31.46;35.88;101389.88;4847198;29;20056;-60